createdAt,value
2023-07-03T00:00:49.954Z,99581.50
2023-07-03T00:02:22.700Z,99577.44
2023-07-03T00:03:54.796Z,99583.22
2023-07-03T00:05:27.039Z,99579.13
2023-07-03T00:06:58.996Z,99581.34
2023-07-03T00:08:30.918Z,99574.38
2023-07-03T00:10:03.033Z,99576.59
2023-07-03T00:11:35.070Z,99576.59
2023-07-03T00:13:07.503Z,99579.31
2023-07-03T00:14:39.973Z,99578.09
2023-07-03T00:16:11.893Z,99577.09
2023-07-03T00:17:47.020Z,99575.06
2023-07-03T00:19:18.923Z,99577.44
2023-07-03T00:20:55.934Z,99568.81
2023-07-03T00:22:27.793Z,99572.03
2023-07-03T00:24:00.227Z,99568.97
2023-07-03T00:25:32.041Z,99568.66
2023-07-03T00:27:04.019Z,99572.53
2023-07-03T00:28:35.941Z,99565.94
2023-07-03T00:30:08.817Z,99576.28
2023-07-03T00:31:40.698Z,99567.81
2023-07-03T00:33:13.353Z,99563.72
2023-07-03T00:34:45.213Z,99563.38
2023-07-03T00:36:17.027Z,99566.59
2023-07-03T00:37:49.409Z,99563.56
2023-07-03T00:39:21.742Z,99561.16
2023-07-03T00:40:53.552Z,99553.88
2023-07-03T00:42:31.203Z,99556.41
2023-07-03T00:44:03.054Z,99564.56
2023-07-03T00:45:35.512Z,99557.09
2023-07-03T00:47:10.745Z,99555.22
2023-07-03T00:48:43.017Z,99555.03
2023-07-03T00:50:14.850Z,99561.31
2023-07-03T00:51:57.350Z,99556.91
2023-07-03T00:53:29.419Z,99559.63
2023-07-03T00:55:01.349Z,99553.34
2023-07-03T00:56:33.233Z,99554.19
2023-07-03T00:58:05.144Z,99558.78
2023-07-03T00:59:37.028Z,99552.50
2023-07-03T01:01:23.087Z,99554.53
2023-07-03T01:03:20.257Z,99553.69
2023-07-03T01:05:00.063Z,99556.06
2023-07-03T01:06:41.259Z,99556.25
2023-07-03T01:08:13.590Z,99560.47
2023-07-03T01:09:50.048Z,99550.81
2023-07-03T01:11:23.612Z,99554.19
2023-07-03T01:12:59.758Z,99538.09
2023-07-03T01:14:31.838Z,99537.06
2023-07-03T01:16:07.183Z,99534.53
2023-07-03T01:17:42.381Z,99531.81
2023-07-03T01:19:30.548Z,99530.31
2023-07-03T01:21:11.008Z,99524.03
2023-07-03T01:22:51.736Z,99524.19
2023-07-03T01:24:42.253Z,99514.72
2023-07-03T01:26:16.243Z,99516.38
2023-07-03T01:27:53.793Z,99527.25
2023-07-03T01:29:26.393Z,99530.50
2023-07-03T01:30:59.145Z,99538.78
2023-07-03T01:32:34.191Z,99533.53
2023-07-03T01:34:10.081Z,99522.00
2023-07-03T01:35:42.386Z,99520.97
2023-07-03T01:37:16.735Z,99515.06
2023-07-03T01:38:51.067Z,99526.94
2023-07-03T01:40:26.257Z,99521.69
2023-07-03T01:42:00.594Z,99521.84
2023-07-03T01:43:32.569Z,99518.28
2023-07-03T01:45:05.789Z,99520.16
2023-07-03T01:46:37.685Z,99514.06
2023-07-03T01:48:10.680Z,99517.59
2023-07-03T01:49:42.723Z,99521.34
2023-07-03T01:51:26.131Z,99512.19
2023-07-03T01:53:06.674Z,99507.59
2023-07-03T01:54:48.337Z,99498.63
2023-07-03T01:56:25.302Z,99505.75
2023-07-03T01:58:17.580Z,99497.13
2023-07-03T01:59:53.815Z,99497.63
2023-07-03T02:01:53.434Z,99493.72
2023-07-03T02:03:44.529Z,99499.66
2023-07-03T02:05:24.851Z,99498.47
2023-07-03T02:06:58.705Z,99490.13
2023-07-03T02:08:32.426Z,99488.25
2023-07-03T02:10:05.492Z,99490.81
2023-07-03T02:11:38.121Z,99490.63
2023-07-03T02:13:10.200Z,99498.44
2023-07-03T02:14:42.078Z,99492.00
2023-07-03T02:16:17.234Z,99494.53
2023-07-03T02:17:53.575Z,99495.88
2023-07-03T02:19:30.110Z,99489.44
2023-07-03T02:21:02.379Z,99490.44
2023-07-03T02:22:34.465Z,99493.84
2023-07-03T02:24:06.789Z,99493.31
2023-07-03T02:25:38.666Z,99494.84
2023-07-03T02:27:10.538Z,99491.63
2023-07-03T02:28:44.172Z,99495.66
2023-07-03T02:30:17.818Z,99494.97
2023-07-03T02:31:49.836Z,99498.19
2023-07-03T02:33:21.681Z,99504.59
2023-07-03T02:34:53.545Z,99492.53
2023-07-03T02:36:30.705Z,99490.31
2023-07-03T02:38:02.623Z,99492.50
2023-07-03T02:39:34.487Z,99498.41
2023-07-03T02:41:06.331Z,99493.50
2023-07-03T02:42:38.200Z,99490.44
2023-07-03T02:44:10.649Z,99492.97
2023-07-03T02:45:43.970Z,99494.63
2023-07-03T02:47:17.346Z,99489.22
2023-07-03T02:48:49.354Z,99489.06
2023-07-03T02:50:22.261Z,99485.31
2023-07-03T02:51:54.087Z,99486.34
2023-07-03T02:53:26.037Z,99481.91
2023-07-03T02:55:04.727Z,99478.22
2023-07-03T02:56:37.902Z,99478.34
2023-07-03T02:58:10.283Z,99481.25
2023-07-03T02:59:43.276Z,99481.25
2023-07-03T03:01:16.331Z,99474.13
2023-07-03T03:02:49.273Z,99474.13
2023-07-03T03:04:21.179Z,99487.72
2023-07-03T03:05:53.274Z,99479.56
2023-07-03T03:07:26.000Z,99479.56
2023-07-03T03:08:57.865Z,99479.38
2023-07-03T03:10:31.296Z,99477.69
2023-07-03T03:12:03.242Z,99479.38
2023-07-03T03:13:35.771Z,99479.38
2023-07-03T03:15:07.990Z,99474.66
2023-07-03T03:16:39.956Z,99473.63
2023-07-03T03:18:12.092Z,99478.88
2023-07-03T03:19:44.854Z,99475.78
2023-07-03T03:21:16.987Z,99471.38
2023-07-03T03:22:50.698Z,99476.63
2023-07-03T03:24:22.578Z,99465.59
2023-07-03T03:25:54.518Z,99476.28
2023-07-03T03:27:26.437Z,99474.44
2023-07-03T03:28:58.774Z,99480.50
2023-07-03T03:30:32.988Z,99477.63
2023-07-03T03:32:06.206Z,99478.97
2023-07-03T03:33:38.520Z,99476.06
2023-07-03T03:35:10.670Z,99482.16
2023-07-03T03:36:43.931Z,99479.28
2023-07-03T03:38:15.852Z,99479.78
2023-07-03T03:39:47.913Z,99481.44
2023-07-03T03:41:20.136Z,99477.34
2023-07-03T03:42:52.958Z,99469.03
2023-07-03T03:44:24.837Z,99475.31
2023-07-03T03:46:01.757Z,99476.81
2023-07-03T03:47:35.258Z,99479.34
2023-07-03T03:49:10.550Z,99478.31
2023-07-03T03:50:42.539Z,99477.31
2023-07-03T03:52:14.684Z,99477.09
2023-07-03T03:53:46.875Z,99475.91
2023-07-03T03:55:19.208Z,99477.59
2023-07-03T03:56:54.395Z,99479.31
2023-07-03T03:58:26.450Z,99482.03
2023-07-03T03:59:58.865Z,99482.66
2023-07-03T04:01:30.731Z,99476.88
2023-07-03T04:03:02.983Z,99477.53
2023-07-03T04:04:35.072Z,99478.88
2023-07-03T04:06:07.347Z,99478.88
2023-07-03T04:07:39.214Z,99482.06
2023-07-03T04:09:11.096Z,99477.09
2023-07-03T04:10:45.662Z,99476.09
2023-07-03T04:12:18.604Z,99482.19
2023-07-03T04:13:50.454Z,99484.75
2023-07-03T04:15:25.682Z,99480.78
2023-07-03T04:16:58.738Z,99477.22
2023-07-03T04:18:32.255Z,99483.13
2023-07-03T04:20:11.749Z,99476.69
2023-07-03T04:21:43.706Z,99492.66
2023-07-03T04:23:16.382Z,99484.50
2023-07-03T04:24:48.248Z,99479.53
2023-07-03T04:26:21.512Z,99482.91
2023-07-03T04:27:53.321Z,99488.19
2023-07-03T04:29:25.148Z,99491.38
2023-07-03T04:30:57.015Z,99492.91
2023-07-03T04:32:29.310Z,99493.56
2023-07-03T04:34:01.408Z,99491.50
2023-07-03T04:35:33.774Z,99484.00
2023-07-03T04:37:07.807Z,99484.50
2023-07-03T04:38:43.276Z,99496.69
2023-07-03T04:40:15.351Z,99492.94
2023-07-03T04:41:47.195Z,99490.69
2023-07-03T04:43:19.448Z,99495.75
2023-07-03T04:44:51.846Z,99499.16
2023-07-03T04:46:25.183Z,99499.44
2023-07-03T04:47:57.105Z,99508.72
2023-07-03T04:49:30.653Z,99500.88
2023-07-03T04:51:02.571Z,99505.75
2023-07-03T04:52:34.859Z,99515.03
2023-07-03T04:54:06.800Z,99512.88
2023-07-03T04:55:39.542Z,99512.63
2023-07-03T04:57:11.583Z,99512.84
2023-07-03T04:58:43.432Z,99519.13
2023-07-03T05:00:20.704Z,99518.72
2023-07-03T05:01:52.877Z,99519.44
2023-07-03T05:03:24.927Z,99514.88
2023-07-03T05:04:58.897Z,99516.41
2023-07-03T05:06:30.808Z,99526.88
2023-07-03T05:08:02.650Z,99520.00
2023-07-03T05:09:34.934Z,99522.91
2023-07-03T05:11:06.847Z,99519.91
2023-07-03T05:12:39.050Z,99519.84
2023-07-03T05:14:11.052Z,99519.94
2023-07-03T05:15:42.989Z,99521.47
2023-07-03T05:17:14.963Z,99519.41
2023-07-03T05:18:46.807Z,99517.13
2023-07-03T05:20:19.854Z,99528.97
2023-07-03T05:21:51.674Z,99522.47
2023-07-03T05:23:23.512Z,99520.78
2023-07-03T05:24:56.958Z,99528.78
2023-07-03T05:26:29.063Z,99522.69
2023-07-03T05:28:00.943Z,99528.38
2023-07-03T05:29:34.160Z,99529.81
2023-07-03T05:31:06.180Z,99518.69
2023-07-03T05:32:38.730Z,99525.00
2023-07-03T05:34:10.643Z,99522.91
2023-07-03T05:35:49.651Z,99535.75
2023-07-03T05:37:22.522Z,99532.41
2023-07-03T05:38:54.373Z,99535.78
2023-07-03T05:40:27.299Z,99530.50
2023-07-03T05:41:59.468Z,99528.97
2023-07-03T05:43:31.342Z,99529.13
2023-07-03T05:45:04.396Z,99537.25
2023-07-03T05:46:36.480Z,99537.34
2023-07-03T05:48:08.387Z,99536.75
2023-07-03T05:49:40.357Z,99540.97
2023-07-03T05:51:12.811Z,99538.84
2023-07-03T05:52:45.649Z,99535.59
2023-07-03T05:54:17.767Z,99540.38
2023-07-03T05:55:57.521Z,99535.19
2023-07-03T05:57:29.386Z,99552.19
2023-07-03T05:59:01.215Z,99541.03
2023-07-03T06:00:33.838Z,99545.59
2023-07-03T06:02:11.876Z,99545.34
2023-07-03T06:03:44.807Z,99554.97
2023-07-03T06:05:16.850Z,99551.63
2023-07-03T06:06:48.726Z,99552.38
2023-07-03T06:08:20.568Z,99554.88
2023-07-03T06:09:52.551Z,99563.16
2023-07-03T06:11:24.412Z,99556.44
2023-07-03T06:12:56.312Z,99559.06
2023-07-03T06:14:30.783Z,99567.34
2023-07-03T06:16:02.619Z,99561.38
2023-07-03T06:17:34.527Z,99562.31
2023-07-03T06:19:06.386Z,99560.03
2023-07-03T06:20:39.129Z,99575.72
2023-07-03T06:22:11.047Z,99567.22
2023-07-03T06:23:42.863Z,99572.00
2023-07-03T06:25:14.785Z,99576.28
2023-07-03T06:26:46.713Z,99579.59
2023-07-03T06:28:18.518Z,99574.88
2023-07-03T06:29:50.365Z,99569.53
2023-07-03T06:31:22.457Z,99574.53
2023-07-03T06:32:54.373Z,99568.34
2023-07-03T06:34:26.364Z,99567.19
2023-07-03T06:35:58.188Z,99569.63
2023-07-03T06:37:30.023Z,99570.44
2023-07-03T06:39:06.183Z,99570.34
2023-07-03T06:40:38.294Z,99564.19
2023-07-03T06:42:11.352Z,99563.84
2023-07-03T06:43:48.150Z,99572.41
2023-07-03T06:45:20.129Z,99563.50
2023-07-03T06:46:52.433Z,99565.88
2023-07-03T06:48:24.304Z,99566.91
2023-07-03T06:49:56.163Z,99563.19
2023-07-03T06:51:28.446Z,99555.59
2023-07-03T06:53:00.268Z,99558.56
2023-07-03T06:54:32.116Z,99564.78
2023-07-03T06:56:07.062Z,99561.59
2023-07-03T06:57:38.872Z,99566.66
2023-07-03T06:59:10.822Z,99568.69
2023-07-03T07:00:42.679Z,99573.47
2023-07-03T07:02:14.650Z,99566.94
2023-07-03T07:03:46.716Z,99562.00
2023-07-03T07:05:20.480Z,99564.84
2023-07-03T07:06:52.467Z,99566.56
2023-07-03T07:08:24.329Z,99568.75
2023-07-03T07:09:56.294Z,99567.69
2023-07-03T07:11:30.946Z,99573.28
2023-07-03T07:13:02.799Z,99582.19
2023-07-03T07:14:34.679Z,99576.66
2023-07-03T07:16:11.085Z,99575.56
2023-07-03T07:17:51.906Z,99577.78
2023-07-03T07:19:24.677Z,99576.09
2023-07-03T07:20:56.534Z,99569.97
2023-07-03T07:22:28.378Z,99572.72
2023-07-03T07:24:13.915Z,99568.50
2023-07-03T07:25:53.733Z,99570.91
2023-07-03T07:27:26.361Z,99569.75
2023-07-03T07:28:58.195Z,99574.16
2023-07-03T07:30:30.114Z,99569.66
2023-07-03T07:32:02.044Z,99568.22
2023-07-03T07:33:33.916Z,99575.13
2023-07-03T07:35:08.884Z,99562.31
2023-07-03T07:36:41.592Z,99571.72
2023-07-03T07:38:14.585Z,99576.16
2023-07-03T07:39:46.429Z,99569.44
2023-07-03T07:41:18.320Z,99563.28
2023-07-03T07:42:50.193Z,99559.28
2023-07-03T07:44:22.272Z,99562.25
2023-07-03T07:45:54.485Z,99556.09
2023-07-03T07:47:26.426Z,99558.03
2023-07-03T07:49:01.516Z,99556.91
2023-07-03T07:50:37.310Z,99560.53
2023-07-03T07:52:09.524Z,99562.47
2023-07-03T07:53:41.730Z,99565.00
2023-07-03T07:55:13.693Z,99563.00
2023-07-03T07:56:46.741Z,99559.66
2023-07-03T07:58:18.629Z,99573.97
2023-07-03T07:59:50.590Z,99571.16
2023-07-03T08:01:22.674Z,99587.13
2023-07-03T08:02:54.627Z,99581.25
2023-07-03T08:04:26.689Z,99582.66
2023-07-03T08:06:00.093Z,99573.44
2023-07-03T08:07:31.967Z,99562.34
2023-07-03T08:09:03.960Z,99568.41
2023-07-03T08:10:35.952Z,99568.09
2023-07-03T08:12:08.209Z,99567.00
2023-07-03T08:13:41.441Z,99584.19
2023-07-03T08:15:13.784Z,99565.38
2023-07-03T08:16:45.767Z,99578.19
2023-07-03T08:18:18.803Z,99602.66
2023-07-03T08:19:50.644Z,99576.69
2023-07-03T08:21:22.511Z,99584.50
2023-07-03T08:22:54.382Z,99583.06
2023-07-03T08:24:26.309Z,99589.44
2023-07-03T08:26:00.325Z,99575.00
2023-07-03T08:27:32.292Z,99581.59
2023-07-03T08:29:04.177Z,99577.34
2023-07-03T08:30:36.322Z,99585.34
2023-07-03T08:32:11.597Z,99582.81
2023-07-03T08:33:43.614Z,99575.28
2023-07-03T08:38:28.403Z,99580.47
2023-07-03T08:40:00.346Z,99579.66
2023-07-03T08:42:00.314Z,99584.03
2023-07-03T08:43:43.499Z,99573.63
2023-07-03T08:45:18.876Z,99581.94
2023-07-03T08:47:02.319Z,99578.53
2023-07-03T08:48:44.630Z,99573.84
2023-07-03T08:50:31.935Z,99590.13
2023-07-03T08:52:08.770Z,99582.84
2023-07-03T08:53:43.282Z,99573.66
2023-07-03T08:55:21.819Z,99569.47
2023-07-03T08:56:55.254Z,99575.75
2023-07-03T08:58:27.202Z,99573.28
2023-07-03T08:59:59.071Z,99569.34
2023-07-03T09:01:47.943Z,99565.66
2023-07-03T09:03:53.747Z,99572.50
2023-07-03T09:05:44.159Z,99569.13
2023-07-03T09:07:34.234Z,99567.69
2023-07-03T09:09:18.865Z,99565.22
2023-07-03T09:10:51.356Z,99566.88
2023-07-03T09:12:36.366Z,99567.16
2023-07-03T09:14:14.267Z,99572.09
2023-07-03T09:15:55.198Z,99576.66
2023-07-03T09:17:27.423Z,99580.78
2023-07-03T09:19:04.528Z,99580.88
2023-07-03T09:20:37.248Z,99575.09
2023-07-03T09:22:17.129Z,99580.38
2023-07-03T09:24:13.439Z,99563.78
2023-07-03T09:25:55.386Z,99577.34
2023-07-03T09:27:29.192Z,99571.25
2023-07-03T09:29:02.931Z,99577.63
2023-07-03T09:30:34.801Z,99582.56
2023-07-03T09:32:13.037Z,99585.56
2023-07-03T09:33:45.166Z,99576.09
2023-07-03T09:35:21.201Z,99581.78
2023-07-03T09:37:00.573Z,99589.38
2023-07-03T09:38:36.319Z,99587.19
2023-07-03T09:40:13.696Z,99591.59
2023-07-03T09:41:47.912Z,99591.56
2023-07-03T09:43:29.237Z,99582.50
2023-07-03T09:45:01.606Z,99580.66
2023-07-03T09:46:33.987Z,99582.97
2023-07-03T09:48:17.500Z,99584.69
2023-07-03T09:49:50.361Z,99590.22
2023-07-03T09:51:28.940Z,99584.69
2023-07-03T09:53:08.533Z,99589.72
2023-07-03T09:54:46.660Z,99591.38
2023-07-03T09:56:22.774Z,99598.72
2023-07-03T09:57:55.302Z,99590.53
2023-07-03T09:59:31.246Z,99587.63
2023-07-03T10:01:05.936Z,99592.50
2023-07-03T10:07:26.024Z,99596.16
2023-07-03T10:12:38.140Z,99607.97
2023-07-03T10:14:15.354Z,99596.72
2023-07-03T10:15:48.764Z,99599.91
2023-07-03T10:17:29.716Z,99593.97
2023-07-03T10:19:01.960Z,99593.78
2023-07-03T10:20:38.066Z,99598.28
2023-07-03T10:22:12.197Z,99595.34
2023-07-03T10:23:45.912Z,99594.31
2023-07-03T10:25:24.363Z,99598.31
2023-07-03T10:27:01.129Z,99601.16
2023-07-03T10:28:44.698Z,99605.00
2023-07-03T10:30:19.823Z,99601.50
2023-07-03T10:31:57.053Z,99606.19
2023-07-03T10:33:34.279Z,99596.78
2023-07-03T10:35:21.594Z,99604.25
2023-07-03T10:37:01.746Z,99593.50
2023-07-03T10:39:00.222Z,99603.81
2023-07-03T10:40:39.239Z,99586.50
2023-07-03T10:42:30.837Z,99584.63
2023-07-03T10:44:09.493Z,99587.28
2023-07-03T10:45:42.597Z,99592.31
2023-07-03T10:47:22.610Z,99580.78
2023-07-03T10:48:56.587Z,99586.19
2023-07-03T10:50:34.942Z,99589.38
2023-07-03T10:52:30.996Z,99586.66
2023-07-03T10:54:15.600Z,99590.56
2023-07-03T10:56:04.365Z,99592.78
2023-07-03T10:58:03.638Z,99604.63
2023-07-03T10:59:42.503Z,99592.94
2023-07-03T11:01:23.271Z,99584.56
2023-07-03T11:03:15.397Z,99587.53
2023-07-03T11:05:16.886Z,99588.59
2023-07-03T11:07:04.569Z,99588.00
2023-07-03T11:08:55.074Z,99597.41
2023-07-03T11:10:57.387Z,99591.63
2023-07-03T11:12:37.152Z,99601.06
2023-07-03T11:14:18.778Z,99604.81
2023-07-03T11:16:12.171Z,99592.91
2023-07-03T11:20:13.592Z,99593.25
2023-07-03T11:24:17.041Z,99580.63
2023-07-03T11:27:57.469Z,99580.03
2023-07-03T11:29:30.069Z,99580.44
2023-07-03T11:31:04.290Z,99586.34
2023-07-03T11:32:37.110Z,99589.03
2023-07-03T11:35:55.128Z,99579.38
2023-07-03T11:37:29.773Z,99583.66
2023-07-03T11:40:56.390Z,99579.53
2023-07-03T11:44:17.768Z,99587.50
2023-07-03T11:46:01.770Z,99588.41
2023-07-03T11:47:36.288Z,99584.63
2023-07-03T11:49:12.743Z,99574.53
2023-07-03T11:50:57.441Z,99583.84
2023-07-03T11:52:32.802Z,99585.94
2023-07-03T11:54:18.791Z,99590.78
2023-07-03T11:55:50.862Z,99594.78
2023-07-03T11:58:08.976Z,99601.75
2023-07-03T11:59:47.616Z,99590.84
2023-07-03T12:01:22.376Z,99597.59
2023-07-03T12:03:00.400Z,99593.22
2023-07-03T12:04:47.861Z,99597.41
2023-07-03T12:06:40.014Z,99602.66
2023-07-03T12:08:32.872Z,99592.19
2023-07-03T12:10:19.742Z,99593.25
2023-07-03T12:12:00.632Z,99596.34
2023-07-03T12:13:46.551Z,99595.53
2023-07-03T12:15:19.417Z,99604.41
2023-07-03T12:16:51.538Z,99601.06
2023-07-03T12:18:23.590Z,99604.59
2023-07-03T12:20:13.746Z,99603.84
2023-07-03T12:21:49.241Z,99601.56
2023-07-03T12:23:43.015Z,99601.78
2023-07-03T12:25:26.757Z,99597.06
2023-07-03T12:27:09.747Z,99592.88
2023-07-03T12:28:42.589Z,99591.81
2023-07-03T12:30:25.349Z,99589.88
2023-07-03T12:32:07.036Z,99595.22
2023-07-03T12:33:52.306Z,99592.53
2023-07-03T12:35:25.528Z,99595.97
2023-07-03T12:37:04.337Z,99607.88
2023-07-03T12:38:36.224Z,99605.44
2023-07-03T12:40:09.617Z,99597.72
2023-07-03T12:41:41.912Z,99595.72
2023-07-03T12:43:19.139Z,99585.47
2023-07-03T12:44:52.289Z,99587.16
2023-07-03T12:46:39.620Z,99587.75
2023-07-03T12:48:18.577Z,99603.97
2023-07-03T12:50:01.169Z,99599.59
2023-07-03T12:51:51.832Z,99591.88
2023-07-03T12:53:25.226Z,99601.06
2023-07-03T12:56:34.360Z,99609.81
2023-07-03T12:58:07.639Z,99601.34
2023-07-03T12:59:39.542Z,99602.84
2023-07-03T13:01:11.926Z,99600.75
2023-07-03T13:02:44.630Z,99597.56
2023-07-03T13:04:26.401Z,99592.97
2023-07-03T13:05:58.902Z,99590.94
2023-07-03T13:07:31.514Z,99590.63
2023-07-03T13:09:04.773Z,99599.19
2023-07-03T13:10:36.889Z,99588.44
2023-07-03T13:12:27.547Z,99593.72
2023-07-03T13:14:20.779Z,99596.91
2023-07-03T13:15:52.900Z,99588.53
2023-07-03T13:17:30.580Z,99589.53
2023-07-03T13:19:03.330Z,99591.34
2023-07-03T13:20:35.890Z,99591.28
2023-07-03T13:22:19.320Z,99594.44
2023-07-03T13:23:51.325Z,99581.06
2023-07-03T13:25:50.669Z,99580.88
2023-07-03T13:27:28.303Z,99590.72
2023-07-03T13:29:02.397Z,99592.16
2023-07-03T13:30:37.929Z,99580.00
2023-07-03T13:32:18.465Z,99585.28
2023-07-03T13:34:12.477Z,99580.41
2023-07-03T13:35:48.081Z,99577.16
2023-07-03T13:37:24.926Z,99581.06
2023-07-03T13:39:12.103Z,99582.50
2023-07-03T13:40:43.930Z,99587.78
2023-07-03T13:42:15.763Z,99591.06
2023-07-03T13:43:47.632Z,99589.91
2023-07-03T13:45:19.534Z,99588.50
2023-07-03T13:46:53.553Z,99591.84
2023-07-03T13:48:27.105Z,99594.88
2023-07-03T13:49:59.234Z,99598.16
2023-07-03T13:51:31.429Z,99597.00
2023-07-03T13:53:03.288Z,99600.81
2023-07-03T13:54:35.329Z,99603.16
2023-07-03T13:56:07.171Z,99584.47
2023-07-03T13:57:39.014Z,99596.84
2023-07-03T13:59:12.553Z,99595.34
2023-07-03T14:00:44.605Z,99605.75
2023-07-03T14:02:16.492Z,99600.16
2023-07-03T14:03:49.094Z,99597.41
2023-07-03T14:05:22.268Z,99601.25
2023-07-03T14:06:54.096Z,99592.69
2023-07-03T14:08:28.476Z,99593.03
2023-07-03T14:10:00.534Z,99596.94
2023-07-03T14:11:33.141Z,99599.22
2023-07-03T14:13:05.304Z,99593.69
2023-07-03T14:14:37.128Z,99597.78
2023-07-03T14:16:09.341Z,99598.81
2023-07-03T14:17:41.254Z,99602.03
2023-07-03T14:19:13.105Z,99602.91
2023-07-03T14:20:52.165Z,99611.56
2023-07-03T14:22:26.137Z,99613.34
2023-07-03T14:23:57.950Z,99605.13
2023-07-03T14:25:30.100Z,99604.22
2023-07-03T14:27:02.251Z,99606.13
2023-07-03T14:28:34.590Z,99604.28
2023-07-03T14:30:08.860Z,99602.53
2023-07-03T14:31:40.792Z,99611.31
2023-07-03T14:33:12.702Z,99606.00
2023-07-03T14:34:44.756Z,99603.25
2023-07-03T14:36:16.872Z,99608.44
2023-07-03T14:37:48.725Z,99607.47
2023-07-03T14:39:20.568Z,99601.50
2023-07-03T14:40:52.429Z,99600.16
2023-07-03T14:42:24.487Z,99596.78
2023-07-03T14:43:56.330Z,99597.88
2023-07-03T14:45:28.219Z,99596.47
2023-07-03T14:47:02.645Z,99601.41
2023-07-03T14:48:34.507Z,99590.09
2023-07-03T14:50:07.676Z,99597.31
2023-07-03T14:51:39.501Z,99603.75
2023-07-03T14:53:11.369Z,99594.75
2023-07-03T14:54:43.671Z,99597.13
2023-07-03T14:56:15.694Z,99599.81
2023-07-03T14:57:47.878Z,99592.00
2023-07-03T14:59:19.711Z,99593.00
2023-07-03T15:00:54.184Z,99599.19
2023-07-03T15:02:26.955Z,99600.59
2023-07-03T15:03:59.049Z,99600.38
2023-07-03T15:05:31.110Z,99598.88
2023-07-03T15:07:02.927Z,99599.38
2023-07-03T15:08:34.772Z,99600.38
2023-07-03T15:10:07.034Z,99607.72
2023-07-03T15:11:38.885Z,99599.81
2023-07-03T15:13:10.827Z,99612.13
2023-07-03T15:14:42.695Z,99600.34
2023-07-03T15:16:14.702Z,99600.47
2023-07-03T15:17:52.117Z,99599.56
2023-07-03T15:19:24.047Z,99608.19
2023-07-03T15:20:55.866Z,99605.25
2023-07-03T15:22:27.714Z,99596.22
2023-07-03T15:23:59.582Z,99598.00
2023-07-03T15:25:31.432Z,99604.53
2023-07-03T15:27:03.732Z,99600.75
2023-07-03T15:28:35.550Z,99597.56
2023-07-03T15:30:08.722Z,99599.28
2023-07-03T15:31:42.420Z,99602.88
2023-07-03T15:33:14.342Z,99597.66
2023-07-03T15:34:51.582Z,99600.47
2023-07-03T15:36:23.925Z,99597.22
2023-07-03T15:37:56.007Z,99603.16
2023-07-03T15:39:30.610Z,99614.72
2023-07-03T15:41:02.430Z,99608.78
2023-07-03T15:42:34.229Z,99606.91
2023-07-03T15:44:06.216Z,99615.59
2023-07-03T15:45:38.046Z,99613.44
2023-07-03T15:47:10.993Z,99616.22
2023-07-03T15:48:44.338Z,99615.66
2023-07-03T15:50:16.232Z,99603.63
2023-07-03T15:51:49.697Z,99612.22
2023-07-03T15:53:21.527Z,99610.28
2023-07-03T15:54:53.568Z,99612.28
2023-07-03T15:56:25.424Z,99609.00
2023-07-03T15:57:57.872Z,99610.47
2023-07-03T15:59:29.779Z,99608.03
2023-07-03T16:01:06.484Z,99624.75
2023-07-03T16:02:39.876Z,99615.91
2023-07-03T16:04:12.038Z,99620.94
2023-07-03T16:05:43.923Z,99622.00
2023-07-03T16:07:16.048Z,99620.59
2023-07-03T16:08:51.625Z,99621.09
2023-07-03T16:10:23.460Z,99622.41
2023-07-03T16:11:55.339Z,99621.97
2023-07-03T16:13:28.275Z,99624.66
2023-07-03T16:15:00.202Z,99629.28
2023-07-03T16:16:32.161Z,99624.47
2023-07-03T16:18:04.063Z,99625.53
2023-07-03T16:19:35.985Z,99630.75
2023-07-03T16:21:13.588Z,99625.13
2023-07-03T16:22:45.425Z,99627.34
2023-07-03T16:24:17.269Z,99633.44
2023-07-03T16:25:51.117Z,99634.78
2023-07-03T16:27:23.171Z,99633.84
2023-07-03T16:28:55.629Z,99637.63
2023-07-03T16:30:28.013Z,99644.41
2023-07-03T16:31:59.888Z,99637.31
2023-07-03T16:33:35.264Z,99632.47
2023-07-03T16:35:07.328Z,99637.91
2023-07-03T16:36:39.139Z,99636.69
2023-07-03T16:38:13.408Z,99651.22
2023-07-03T16:39:45.525Z,99651.06
2023-07-03T16:41:18.246Z,99646.41
2023-07-03T16:42:50.137Z,99658.97
2023-07-03T16:44:22.033Z,99655.59
2023-07-03T16:45:53.895Z,99652.22
2023-07-03T16:47:25.740Z,99652.72
2023-07-03T16:48:59.238Z,99649.31
2023-07-03T16:50:31.381Z,99647.97
2023-07-03T16:52:03.615Z,99640.56
2023-07-03T16:53:38.577Z,99651.25
2023-07-03T16:55:10.415Z,99644.06
2023-07-03T16:56:42.246Z,99646.56
2023-07-03T16:58:14.184Z,99636.72
2023-07-03T16:59:46.012Z,99635.84
2023-07-03T17:01:21.166Z,99635.63
2023-07-03T17:02:53.163Z,99638.38
2023-07-03T17:04:25.596Z,99630.59
2023-07-03T17:05:58.100Z,99635.19
2023-07-03T17:07:29.929Z,99640.03
2023-07-03T17:09:03.001Z,99643.41
2023-07-03T17:10:36.048Z,99637.31
2023-07-03T17:12:08.104Z,99641.19
2023-07-03T17:13:40.155Z,99639.81
2023-07-03T17:15:12.105Z,99647.75
2023-07-03T17:16:44.007Z,99636.78
2023-07-03T17:18:16.264Z,99634.75
2023-07-03T17:19:48.072Z,99638.22
2023-07-03T17:21:19.903Z,99637.22
2023-07-03T17:22:52.468Z,99638.13
2023-07-03T17:24:24.283Z,99643.50
2023-07-03T17:25:56.133Z,99635.03
2023-07-03T17:27:27.963Z,99635.44
2023-07-03T17:29:00.097Z,99632.84
2023-07-03T17:30:32.004Z,99633.03
2023-07-03T17:32:03.929Z,99634.66
2023-07-03T17:33:36.687Z,99639.00
2023-07-03T17:35:08.637Z,99640.13
2023-07-03T17:36:40.511Z,99634.31
2023-07-03T17:38:13.816Z,99642.03
2023-07-03T17:39:46.622Z,99636.84
2023-07-03T17:41:20.021Z,99639.66
2023-07-03T17:42:52.420Z,99634.22
2023-07-03T17:44:24.363Z,99635.72
2023-07-03T17:45:56.253Z,99640.41
2023-07-03T17:47:28.700Z,99637.72
2023-07-03T17:49:00.652Z,99633.13
2023-07-03T17:50:32.524Z,99631.53
2023-07-03T17:52:04.447Z,99630.09
2023-07-03T17:53:36.301Z,99630.41
2023-07-03T17:55:08.763Z,99632.19
2023-07-03T17:56:40.600Z,99622.94
2023-07-03T17:58:12.475Z,99623.41
2023-07-03T17:59:44.338Z,99621.81
2023-07-03T18:01:16.258Z,99627.16
2023-07-03T18:02:48.229Z,99617.94
2023-07-03T18:04:20.252Z,99626.88
2023-07-03T18:05:55.986Z,99634.06
2023-07-03T18:07:28.056Z,99625.63
2023-07-03T18:08:59.879Z,99614.50
2023-07-03T18:10:33.192Z,99630.59
2023-07-03T18:12:05.460Z,99629.13
2023-07-03T18:13:37.415Z,99635.88
2023-07-03T18:15:10.829Z,99629.53
2023-07-03T18:16:42.829Z,99624.25
2023-07-03T18:18:14.702Z,99624.50
2023-07-03T18:19:46.534Z,99629.75
2023-07-03T18:21:18.397Z,99637.16
2023-07-03T18:22:50.230Z,99632.50
2023-07-03T18:24:22.091Z,99636.94
2023-07-03T18:25:54.102Z,99632.50
2023-07-03T18:27:26.138Z,99624.06
2023-07-03T18:28:58.018Z,99634.19
2023-07-03T18:30:30.019Z,99634.97
2023-07-03T18:32:01.876Z,99631.63
2023-07-03T18:33:35.267Z,99637.06
2023-07-03T18:35:07.840Z,99632.84
2023-07-03T18:36:40.828Z,99639.56
2023-07-03T18:38:12.652Z,99634.06
2023-07-03T18:39:47.467Z,99636.13
2023-07-03T18:41:19.872Z,99636.31
2023-07-03T18:42:51.727Z,99642.97
2023-07-03T18:44:23.572Z,99642.31
2023-07-03T18:45:56.291Z,99642.50
2023-07-03T18:47:31.337Z,99647.28
2023-07-03T18:49:03.374Z,99648.47
2023-07-03T18:50:38.866Z,99648.00
2023-07-03T18:52:10.687Z,99645.00
2023-07-03T18:53:42.802Z,99647.22
2023-07-03T18:55:14.935Z,99651.31
2023-07-03T18:56:46.816Z,99648.94
2023-07-03T18:58:19.013Z,99654.09